sensor_id;sensor_type;location;lat;lon;timestamp;pressure;altitude;pressure_sealevel;temperature;humidity
31771;BME280;18343;50.152;8.182;2023-02-13T00:02:08;99442.28;;;7.69;100.00
31771;BME280;18343;50.152;8.182;2023-02-13T00:04:53;99432.41;;;7.69;100.00
31771;BME280;18343;50.152;8.182;2023-02-13T00:07:37;99430.72;;;7.68;100.00
31771;BME280;18343;50.152;8.182;2023-02-13T00:10:22;99435.50;;;7.65;100.00
31771;BME280;18343;50.152;8.182;2023-02-13T00:13:07;99433.78;;;7.64;100.00
31771;BME280;18343;50.152;8.182;2023-02-13T00:15:56;99429.53;;;7.61;100.00
31771;BME280;18343;50.152;8.182;2023-02-13T00:18:42;99423.69;;;7.56;100.00
31771;BME280;18343;50.152;8.182;2023-02-13T00:21:27;99434.66;;;7.53;100.00
31771;BME280;18343;50.152;8.182;2023-02-13T00:24:11;99424.44;;;7.47;100.00
31771;BME280;18343;50.152;8.182;2023-02-13T00:26:55;99428.34;;;7.43;100.00
31771;BME280;18343;50.152;8.182;2023-02-13T00:29:40;99424.19;;;7.39;100.00
31771;BME280;18343;50.152;8.182;2023-02-13T00:32:25;99418.50;;;7.32;100.00
31771;BME280;18343;50.152;8.182;2023-02-13T00:35:11;99426.66;;;7.31;100.00
31771;BME280;18343;50.152;8.182;2023-02-13T00:37:56;99421.56;;;7.28;100.00
31771;BME280;18343;50.152;8.182;2023-02-13T00:40:40;99426.41;;;7.23;100.00
31771;BME280;18343;50.152;8.182;2023-02-13T00:43:25;99423.00;;;7.21;100.00
31771;BME280;18343;50.152;8.182;2023-02-13T00:46:10;99419.72;;;7.17;100.00
31771;BME280;18343;50.152;8.182;2023-02-13T00:48:55;99421.66;;;7.15;100.00
31771;BME280;18343;50.152;8.182;2023-02-13T00:51:41;99418.66;;;7.08;100.00
31771;BME280;18343;50.152;8.182;2023-02-13T00:54:25;99419.75;;;7.06;100.00
31771;BME280;18343;50.152;8.182;2023-02-13T00:57:10;99417.31;;;7.03;100.00
31771;BME280;18343;50.152;8.182;2023-02-13T00:59:54;99415.72;;;7.00;100.00
31771;BME280;18343;50.152;8.182;2023-02-13T01:02:39;99411.59;;;6.96;100.00
31771;BME280;18343;50.152;8.182;2023-02-13T01:05:23;99415.47;;;6.92;100.00
31771;BME280;18343;50.152;8.182;2023-02-13T01:08:11;99418.75;;;6.85;100.00
31771;BME280;18343;50.152;8.182;2023-02-13T01:10:56;99417.19;;;6.82;100.00
31771;BME280;18343;50.152;8.182;2023-02-13T01:13:41;99417.44;;;6.79;100.00
31771;BME280;18343;50.152;8.182;2023-02-13T01:16:25;99421.44;;;6.73;100.00
31771;BME280;18343;50.152;8.182;2023-02-13T01:19:10;99420.69;;;6.71;100.00
31771;BME280;18343;50.152;8.182;2023-02-13T01:21:54;99430.66;;;6.69;100.00
31771;BME280;18343;50.152;8.182;2023-02-13T01:24:40;99428.09;;;6.68;100.00
31771;BME280;18343;50.152;8.182;2023-02-13T01:27:26;99429.06;;;6.67;100.00
31771;BME280;18343;50.152;8.182;2023-02-13T01:30:13;99431.13;;;6.63;100.00
31771;BME280;18343;50.152;8.182;2023-02-13T01:32:57;99424.69;;;6.55;100.00
31771;BME280;18343;50.152;8.182;2023-02-13T01:35:42;99419.69;;;6.50;100.00
31771;BME280;18343;50.152;8.182;2023-02-13T01:38:27;99416.28;;;6.48;100.00
31771;BME280;18343;50.152;8.182;2023-02-13T01:41:13;99419.09;;;6.47;100.00
31771;BME280;18343;50.152;8.182;2023-02-13T01:43:59;99412.50;;;6.39;100.00
31771;BME280;18343;50.152;8.182;2023-02-13T01:46:44;99411.50;;;6.29;100.00
31771;BME280;18343;50.152;8.182;2023-02-13T01:49:29;99415.63;;;6.22;100.00
31771;BME280;18343;50.152;8.182;2023-02-13T01:52:14;99413.66;;;6.13;100.00
31771;BME280;18343;50.152;8.182;2023-02-13T01:55:00;99409.50;;;6.09;100.00
31771;BME280;18343;50.152;8.182;2023-02-13T01:57:51;99417.75;;;6.06;100.00
31771;BME280;18343;50.152;8.182;2023-02-13T02:00:38;99407.66;;;5.98;100.00
31771;BME280;18343;50.152;8.182;2023-02-13T02:03:26;99402.78;;;5.92;100.00
31771;BME280;18343;50.152;8.182;2023-02-13T02:06:17;99404.69;;;5.90;100.00
31771;BME280;18343;50.152;8.182;2023-02-13T02:09:10;99409.50;;;5.85;100.00
31771;BME280;18343;50.152;8.182;2023-02-13T02:12:01;99394.44;;;5.84;100.00
31771;BME280;18343;50.152;8.182;2023-02-13T02:14:51;99406.19;;;5.82;100.00
31771;BME280;18343;50.152;8.182;2023-02-13T02:17:36;99402.06;;;5.77;100.00
31771;BME280;18343;50.152;8.182;2023-02-13T02:20:36;99400.59;;;5.73;100.00
31771;BME280;18343;50.152;8.182;2023-02-13T02:23:57;99397.31;;;5.70;100.00
31771;BME280;18343;50.152;8.182;2023-02-13T02:27:06;99388.03;;;5.63;100.00
31771;BME280;18343;50.152;8.182;2023-02-13T02:30:45;99392.00;;;5.57;100.00
31771;BME280;18343;50.152;8.182;2023-02-13T02:33:49;99389.78;;;5.51;100.00
31771;BME280;18343;50.152;8.182;2023-02-13T02:36:55;99392.34;;;5.53;100.00
31771;BME280;18343;50.152;8.182;2023-02-13T02:40:06;99385.31;;;5.52;100.00
31771;BME280;18343;50.152;8.182;2023-02-13T02:43:13;99388.50;;;5.57;100.00
31771;BME280;18343;50.152;8.182;2023-02-13T02:46:11;99393.72;;;5.58;100.00
31771;BME280;18343;50.152;8.182;2023-02-13T02:49:05;99389.97;;;5.61;100.00
31771;BME280;18343;50.152;8.182;2023-02-13T02:51:58;99392.63;;;5.61;100.00
31771;BME280;18343;50.152;8.182;2023-02-13T02:54:51;99388.56;;;5.68;100.00
31771;BME280;18343;50.152;8.182;2023-02-13T02:57:41;99385.78;;;5.69;100.00
31771;BME280;18343;50.152;8.182;2023-02-13T03:00:28;99390.25;;;5.69;100.00
31771;BME280;18343;50.152;8.182;2023-02-13T03:03:19;99389.31;;;5.70;100.00
31771;BME280;18343;50.152;8.182;2023-02-13T03:06:14;99379.25;;;5.73;100.00
31771;BME280;18343;50.152;8.182;2023-02-13T03:09:03;99387.94;;;5.64;100.00
31771;BME280;18343;50.152;8.182;2023-02-13T03:11:53;99387.63;;;5.56;100.00
31771;BME280;18343;50.152;8.182;2023-02-13T03:14:38;99385.53;;;5.49;100.00
31771;BME280;18343;50.152;8.182;2023-02-13T03:17:26;99381.00;;;5.38;100.00
31771;BME280;18343;50.152;8.182;2023-02-13T03:20:22;99384.09;;;5.32;100.00
31771;BME280;18343;50.152;8.182;2023-02-13T03:23:16;99380.41;;;5.22;100.00
31771;BME280;18343;50.152;8.182;2023-02-13T03:26:31;99382.56;;;5.17;100.00
31771;BME280;18343;50.152;8.182;2023-02-13T03:29:30;99388.13;;;5.14;100.00
31771;BME280;18343;50.152;8.182;2023-02-13T03:32:27;99386.41;;;5.13;100.00
31771;BME280;18343;50.152;8.182;2023-02-13T03:35:26;99386.97;;;5.05;100.00
31771;BME280;18343;50.152;8.182;2023-02-13T03:38:21;99397.41;;;4.95;100.00
31771;BME280;18343;50.152;8.182;2023-02-13T03:41:12;99395.81;;;4.93;100.00
31771;BME280;18343;50.152;8.182;2023-02-13T03:44:10;99402.25;;;4.90;100.00
31771;BME280;18343;50.152;8.182;2023-02-13T03:46:59;99413.34;;;4.84;100.00
31771;BME280;18343;50.152;8.182;2023-02-13T03:49:47;99406.53;;;4.80;100.00
31771;BME280;18343;50.152;8.182;2023-02-13T03:52:38;99409.94;;;4.82;100.00
31771;BME280;18343;50.152;8.182;2023-02-13T03:55:29;99416.44;;;4.78;100.00
31771;BME280;18343;50.152;8.182;2023-02-13T03:58:19;99413.34;;;4.71;100.00
31771;BME280;18343;50.152;8.182;2023-02-13T04:01:07;99420.81;;;4.66;100.00
31771;BME280;18343;50.152;8.182;2023-02-13T04:03:58;99415.59;;;4.65;100.00
31771;BME280;18343;50.152;8.182;2023-02-13T04:06:50;99408.13;;;4.57;100.00
31771;BME280;18343;50.152;8.182;2023-02-13T04:09:39;99406.53;;;4.55;100.00
31771;BME280;18343;50.152;8.182;2023-02-13T04:12:36;99410.81;;;4.57;100.00
31771;BME280;18343;50.152;8.182;2023-02-13T04:15:28;99418.78;;;4.57;100.00
31771;BME280;18343;50.152;8.182;2023-02-13T04:18:17;99415.28;;;4.57;100.00
31771;BME280;18343;50.152;8.182;2023-02-13T04:21:05;99412.63;;;4.57;100.00
31771;BME280;18343;50.152;8.182;2023-02-13T04:23:50;99411.00;;;4.54;100.00
31771;BME280;18343;50.152;8.182;2023-02-13T04:26:37;99403.97;;;4.53;100.00
31771;BME280;18343;50.152;8.182;2023-02-13T04:29:25;99412.19;;;4.50;100.00
31771;BME280;18343;50.152;8.182;2023-02-13T04:32:09;99407.91;;;4.48;100.00
31771;BME280;18343;50.152;8.182;2023-02-13T04:34:54;99405.66;;;4.41;100.00
31771;BME280;18343;50.152;8.182;2023-02-13T04:37:38;99412.81;;;4.41;100.00
31771;BME280;18343;50.152;8.182;2023-02-13T04:40:23;99409.19;;;4.42;100.00
31771;BME280;18343;50.152;8.182;2023-02-13T04:43:08;99411.75;;;4.43;100.00
31771;BME280;18343;50.152;8.182;2023-02-13T04:45:56;99413.16;;;4.36;100.00
31771;BME280;18343;50.152;8.182;2023-02-13T04:48:41;99408.22;;;4.30;100.00
31771;BME280;18343;50.152;8.182;2023-02-13T04:51:25;99404.63;;;4.31;100.00
31771;BME280;18343;50.152;8.182;2023-02-13T04:54:10;99408.44;;;4.27;100.00
31771;BME280;18343;50.152;8.182;2023-02-13T04:56:55;99406.94;;;4.23;100.00
31771;BME280;18343;50.152;8.182;2023-02-13T04:59:39;99396.19;;;4.25;100.00
31771;BME280;18343;50.152;8.182;2023-02-13T05:02:25;99408.75;;;4.23;100.00
31771;BME280;18343;50.152;8.182;2023-02-13T05:05:10;99404.03;;;4.14;100.00
31771;BME280;18343;50.152;8.182;2023-02-13T05:07:54;99406.28;;;4.07;100.00
31771;BME280;18343;50.152;8.182;2023-02-13T05:10:39;99401.56;;;3.98;100.00
31771;BME280;18343;50.152;8.182;2023-02-13T05:13:23;99399.13;;;3.95;100.00
31771;BME280;18343;50.152;8.182;2023-02-13T05:16:08;99398.06;;;3.97;100.00
31771;BME280;18343;50.152;8.182;2023-02-13T05:18:54;99401.47;;;3.99;100.00
31771;BME280;18343;50.152;8.182;2023-02-13T05:21:38;99407.97;;;3.95;100.00
31771;BME280;18343;50.152;8.182;2023-02-13T05:24:23;99402.19;;;3.89;100.00
31771;BME280;18343;50.152;8.182;2023-02-13T05:27:08;99412.41;;;3.82;100.00
31771;BME280;18343;50.152;8.182;2023-02-13T05:29:52;99402.63;;;3.83;100.00
31771;BME280;18343;50.152;8.182;2023-02-13T05:32:37;99413.88;;;3.73;100.00
31771;BME280;18343;50.152;8.182;2023-02-13T05:35:23;99407.03;;;3.69;100.00
31771;BME280;18343;50.152;8.182;2023-02-13T05:38:08;99410.75;;;3.67;100.00
31771;BME280;18343;50.152;8.182;2023-02-13T05:40:53;99410.66;;;3.68;100.00
31771;BME280;18343;50.152;8.182;2023-02-13T05:43:37;99404.88;;;3.62;100.00
31771;BME280;18343;50.152;8.182;2023-02-13T05:46:22;99415.72;;;3.59;100.00
31771;BME280;18343;50.152;8.182;2023-02-13T05:49:08;99412.53;;;3.54;100.00
31771;BME280;18343;50.152;8.182;2023-02-13T05:51:54;99415.81;;;3.57;100.00
31771;BME280;18343;50.152;8.182;2023-02-13T05:54:39;99416.75;;;3.56;100.00
31771;BME280;18343;50.152;8.182;2023-02-13T05:57:23;99421.13;;;3.57;100.00
31771;BME280;18343;50.152;8.182;2023-02-13T06:00:09;99418.88;;;3.51;100.00
31771;BME280;18343;50.152;8.182;2023-02-13T06:02:54;99420.91;;;3.48;100.00
31771;BME280;18343;50.152;8.182;2023-02-13T06:05:38;99418.81;;;3.38;100.00
31771;BME280;18343;50.152;8.182;2023-02-13T06:08:25;99410.38;;;3.32;100.00
31771;BME280;18343;50.152;8.182;2023-02-13T06:11:11;99417.69;;;3.28;100.00
31771;BME280;18343;50.152;8.182;2023-02-13T06:13:55;99407.38;;;3.24;100.00
31771;BME280;18343;50.152;8.182;2023-02-13T06:16:40;99416.50;;;3.20;100.00
31771;BME280;18343;50.152;8.182;2023-02-13T06:19:24;99413.28;;;3.15;100.00
31771;BME280;18343;50.152;8.182;2023-02-13T06:22:09;99409.19;;;3.09;100.00
31771;BME280;18343;50.152;8.182;2023-02-13T06:24:54;99413.09;;;3.03;100.00
31771;BME280;18343;50.152;8.182;2023-02-13T06:27:39;99410.84;;;2.97;100.00
31771;BME280;18343;50.152;8.182;2023-02-13T06:30:23;99420.16;;;2.90;100.00
31771;BME280;18343;50.152;8.182;2023-02-13T06:33:08;99410.84;;;2.83;100.00
31771;BME280;18343;50.152;8.182;2023-02-13T06:35:53;99413.97;;;2.76;100.00
31771;BME280;18343;50.152;8.182;2023-02-13T06:38:37;99416.72;;;2.74;100.00
31771;BME280;18343;50.152;8.182;2023-02-13T06:41:23;99420.53;;;2.70;100.00
31771;BME280;18343;50.152;8.182;2023-02-13T06:44:08;99419.78;;;2.68;100.00
31771;BME280;18343;50.152;8.182;2023-02-13T06:46:53;99415.22;;;2.70;100.00
31771;BME280;18343;50.152;8.182;2023-02-13T06:49:38;99418.91;;;2.67;100.00
31771;BME280;18343;50.152;8.182;2023-02-13T06:52:22;99421.84;;;2.63;100.00
31771;BME280;18343;50.152;8.182;2023-02-13T06:55:07;99418.72;;;2.56;100.00
31771;BME280;18343;50.152;8.182;2023-02-13T06:57:53;99420.44;;;2.57;100.00
31771;BME280;18343;50.152;8.182;2023-02-13T07:00:38;99421.94;;;2.61;100.00
31771;BME280;18343;50.152;8.182;2023-02-13T07:03:22;99429.81;;;2.63;100.00
31771;BME280;18343;50.152;8.182;2023-02-13T07:06:07;99425.19;;;2.66;100.00
31771;BME280;18343;50.152;8.182;2023-02-13T07:08:51;99420.72;;;2.67;100.00
31771;BME280;18343;50.152;8.182;2023-02-13T07:11:36;99419.97;;;2.65;100.00
31771;BME280;18343;50.152;8.182;2023-02-13T07:14:22;99424.31;;;2.66;100.00
31771;BME280;18343;50.152;8.182;2023-02-13T07:17:07;99426.03;;;2.67;100.00
31771;BME280;18343;50.152;8.182;2023-02-13T07:19:52;99429.56;;;2.67;100.00
31771;BME280;18343;50.152;8.182;2023-02-13T07:22:37;99427.56;;;2.71;100.00
31771;BME280;18343;50.152;8.182;2023-02-13T07:25:21;99433.72;;;2.71;100.00
31771;BME280;18343;50.152;8.182;2023-02-13T07:28:06;99426.63;;;2.72;100.00
31771;BME280;18343;50.152;8.182;2023-02-13T07:30:52;99422.78;;;2.76;100.00
31771;BME280;18343;50.152;8.182;2023-02-13T07:33:37;99427.44;;;2.87;100.00
31771;BME280;18343;50.152;8.182;2023-02-13T07:36:22;99434.94;;;2.94;100.00
31771;BME280;18343;50.152;8.182;2023-02-13T07:39:06;99439.13;;;2.98;100.00
31771;BME280;18343;50.152;8.182;2023-02-13T07:41:51;99438.19;;;2.99;100.00
31771;BME280;18343;50.152;8.182;2023-02-13T07:44:36;99435.69;;;3.11;100.00
31771;BME280;18343;50.152;8.182;2023-02-13T07:47:22;99432.53;;;3.18;100.00
31771;BME280;18343;50.152;8.182;2023-02-13T07:50:07;99440.94;;;3.39;100.00
31771;BME280;18343;50.152;8.182;2023-02-13T07:52:53;99436.69;;;3.63;100.00
31771;BME280;18343;50.152;8.182;2023-02-13T07:55:38;99427.34;;;3.97;100.00
31771;BME280;18343;50.152;8.182;2023-02-13T07:58:22;99428.69;;;4.30;100.00
31771;BME280;18343;50.152;8.182;2023-02-13T08:01:08;99431.47;;;4.54;100.00
31771;BME280;18343;50.152;8.182;2023-02-13T08:03:54;99420.69;;;4.68;100.00
31771;BME280;18343;50.152;8.182;2023-02-13T08:06:39;99423.59;;;4.90;100.00
31771;BME280;18343;50.152;8.182;2023-02-13T08:09:24;99423.44;;;5.04;100.00
31771;BME280;18343;50.152;8.182;2023-02-13T08:12:09;99422.34;;;5.20;100.00
31771;BME280;18343;50.152;8.182;2023-02-13T08:14:54;99427.53;;;5.34;100.00
31771;BME280;18343;50.152;8.182;2023-02-13T08:17:38;99430.84;;;5.37;100.00
31771;BME280;18343;50.152;8.182;2023-02-13T08:20:24;99425.09;;;5.31;100.00
31771;BME280;18343;50.152;8.182;2023-02-13T08:23:09;99427.22;;;5.26;100.00
31771;BME280;18343;50.152;8.182;2023-02-13T08:25:54;99425.31;;;5.28;100.00
31771;BME280;18343;50.152;8.182;2023-02-13T08:28:38;99429.03;;;5.38;100.00
31771;BME280;18343;50.152;8.182;2023-02-13T08:31:23;99435.16;;;5.51;100.00
31771;BME280;18343;50.152;8.182;2023-02-13T08:34:08;99434.03;;;5.66;100.00
31771;BME280;18343;50.152;8.182;2023-02-13T08:36:54;99431.09;;;5.82;100.00
31771;BME280;18343;50.152;8.182;2023-02-13T08:39:38;99419.41;;;5.96;100.00
31771;BME280;18343;50.152;8.182;2023-02-13T08:42:23;99414.09;;;6.07;100.00
31771;BME280;18343;50.152;8.182;2023-02-13T08:45:08;99423.34;;;6.14;100.00
31771;BME280;18343;50.152;8.182;2023-02-13T08:47:55;99422.56;;;6.25;100.00
31771;BME280;18343;50.152;8.182;2023-02-13T08:50:40;99425.00;;;6.39;100.00
31771;BME280;18343;50.152;8.182;2023-02-13T08:53:26;99425.16;;;6.49;100.00
31771;BME280;18343;50.152;8.182;2023-02-13T08:56:10;99425.16;;;6.60;100.00
31771;BME280;18343;50.152;8.182;2023-02-13T08:58:55;99424.69;;;6.66;100.00
31771;BME280;18343;50.152;8.182;2023-02-13T09:01:40;99428.00;;;6.69;100.00
31771;BME280;18343;50.152;8.182;2023-02-13T09:04:24;99433.09;;;6.72;100.00
31771;BME280;18343;50.152;8.182;2023-02-13T09:07:09;99439.19;;;6.74;100.00
31771;BME280;18343;50.152;8.182;2023-02-13T09:10:05;99439.91;;;6.76;100.00
31771;BME280;18343;50.152;8.182;2023-02-13T09:12:51;99436.16;;;6.90;100.00
31771;BME280;18343;50.152;8.182;2023-02-13T09:15:37;99437.00;;;6.91;100.00
31771;BME280;18343;50.152;8.182;2023-02-13T09:18:22;99434.69;;;6.97;100.00
31771;BME280;18343;50.152;8.182;2023-02-13T09:21:10;99441.28;;;7.04;100.00
31771;BME280;18343;50.152;8.182;2023-02-13T09:23:55;99445.41;;;7.08;100.00
31771;BME280;18343;50.152;8.182;2023-02-13T09:26:41;99444.91;;;7.14;100.00
31771;BME280;18343;50.152;8.182;2023-02-13T09:29:26;99448.91;;;7.20;100.00
31771;BME280;18343;50.152;8.182;2023-02-13T09:32:11;99445.28;;;7.21;100.00
31771;BME280;18343;50.152;8.182;2023-02-13T09:34:55;99449.16;;;7.28;100.00
31771;BME280;18343;50.152;8.182;2023-02-13T09:37:40;99441.75;;;7.32;100.00
31771;BME280;18343;50.152;8.182;2023-02-13T09:40:28;99434.31;;;7.35;100.00
31771;BME280;18343;50.152;8.182;2023-02-13T09:43:29;99445.00;;;7.46;100.00
31771;BME280;18343;50.152;8.182;2023-02-13T09:46:18;99437.56;;;7.50;100.00
31771;BME280;18343;50.152;8.182;2023-02-13T09:49:08;99442.56;;;7.55;100.00
31771;BME280;18343;50.152;8.182;2023-02-13T09:51:56;99435.13;;;7.58;100.00
31771;BME280;18343;50.152;8.182;2023-02-13T09:54:41;99445.81;;;7.69;100.00
31771;BME280;18343;50.152;8.182;2023-02-13T09:57:30;99435.94;;;7.70;100.00
31771;BME280;18343;50.152;8.182;2023-02-13T10:00:21;99447.50;;;7.81;100.00
31771;BME280;18343;50.152;8.182;2023-02-13T10:03:23;99450.28;;;7.91;100.00
31771;BME280;18343;50.152;8.182;2023-02-13T10:06:18;99452.28;;;7.99;100.00
31771;BME280;18343;50.152;8.182;2023-02-13T10:09:14;99449.72;;;8.08;100.00
31771;BME280;18343;50.152;8.182;2023-02-13T10:12:27;99448.34;;;8.14;100.00
31771;BME280;18343;50.152;8.182;2023-02-13T10:15:23;99445.88;;;8.22;100.00
31771;BME280;18343;50.152;8.182;2023-02-13T10:18:14;99446.16;;;8.19;100.00
31771;BME280;18343;50.152;8.182;2023-02-13T10:21:02;99442.41;;;8.31;100.00
31771;BME280;18343;50.152;8.182;2023-02-13T10:23:52;99448.63;;;8.43;100.00
31771;BME280;18343;50.152;8.182;2023-02-13T10:26:41;99440.19;;;8.47;100.00
31771;BME280;18343;50.152;8.182;2023-02-13T10:29:37;99440.69;;;8.62;100.00
31771;BME280;18343;50.152;8.182;2023-02-13T10:32:29;99429.19;;;8.71;100.00
31771;BME280;18343;50.152;8.182;2023-02-13T10:35:23;99434.34;;;8.84;100.00
31771;BME280;18343;50.152;8.182;2023-02-13T10:38:15;99429.63;;;8.97;100.00
31771;BME280;18343;50.152;8.182;2023-02-13T10:41:23;99433.63;;;9.12;100.00
31771;BME280;18343;50.152;8.182;2023-02-13T10:44:26;99426.34;;;9.24;100.00
31771;BME280;18343;50.152;8.182;2023-02-13T10:47:29;99436.38;;;9.32;100.00
31771;BME280;18343;50.152;8.182;2023-02-13T10:50:25;99425.94;;;9.38;100.00
31771;BME280;18343;50.152;8.182;2023-02-13T10:53:19;99424.72;;;9.52;100.00
31771;BME280;18343;50.152;8.182;2023-02-13T10:56:24;99429.97;;;9.63;100.00
31771;BME280;18343;50.152;8.182;2023-02-13T10:59:44;99425.91;;;9.78;100.00
31771;BME280;18343;50.152;8.182;2023-02-13T11:02:32;99420.41;;;9.80;100.00
31771;BME280;18343;50.152;8.182;2023-02-13T11:05:20;99426.75;;;9.89;100.00
31771;BME280;18343;50.152;8.182;2023-02-13T11:08:19;99414.75;;;10.02;100.00
31771;BME280;18343;50.152;8.182;2023-02-13T11:11:09;99418.72;;;10.08;100.00
31771;BME280;18343;50.152;8.182;2023-02-13T11:14:14;99410.25;;;10.22;100.00
31771;BME280;18343;50.152;8.182;2023-02-13T11:17:02;99414.38;;;10.36;100.00
31771;BME280;18343;50.152;8.182;2023-02-13T11:19:53;99410.66;;;10.46;100.00
31771;BME280;18343;50.152;8.182;2023-02-13T11:22:40;99410.50;;;10.58;100.00
31771;BME280;18343;50.152;8.182;2023-02-13T11:25:27;99393.91;;;10.72;100.00
31771;BME280;18343;50.152;8.182;2023-02-13T11:28:18;99396.00;;;10.88;100.00
31771;BME280;18343;50.152;8.182;2023-02-13T11:31:13;99389.97;;;11.03;100.00
31771;BME280;18343;50.152;8.182;2023-02-13T11:34:23;99394.03;;;11.17;100.00
31771;BME280;18343;50.152;8.182;2023-02-13T11:37:21;99385.59;;;11.30;100.00
31771;BME280;18343;50.152;8.182;2023-02-13T11:40:30;99394.75;;;11.46;100.00
31771;BME280;18343;50.152;8.182;2023-02-13T11:43:26;99408.59;;;11.51;100.00
31771;BME280;18343;50.152;8.182;2023-02-13T11:46:18;99402.56;;;11.40;100.00
31771;BME280;18343;50.152;8.182;2023-02-13T11:49:04;99384.97;;;11.63;100.00
31771;BME280;18343;50.152;8.182;2023-02-13T11:51:52;99393.88;;;11.73;100.00
31771;BME280;18343;50.152;8.182;2023-02-13T11:54:42;99382.13;;;11.92;100.00
31771;BME280;18343;50.152;8.182;2023-02-13T11:57:30;99379.50;;;12.00;100.00
31771;BME280;18343;50.152;8.182;2023-02-13T12:00:29;99372.00;;;12.12;100.00
31771;BME280;18343;50.152;8.182;2023-02-13T12:03:28;99374.78;;;12.20;100.00
31771;BME280;18343;50.152;8.182;2023-02-13T12:06:15;99376.47;;;12.21;100.00
31771;BME280;18343;50.152;8.182;2023-02-13T12:09:00;99372.84;;;12.30;100.00
31771;BME280;18343;50.152;8.182;2023-02-13T12:11:49;99368.81;;;12.34;100.00
31771;BME280;18343;50.152;8.182;2023-02-13T12:14:39;99371.28;;;12.45;100.00
31771;BME280;18343;50.152;8.182;2023-02-13T12:17:27;99369.44;;;12.46;100.00
31771;BME280;18343;50.152;8.182;2023-02-13T12:20:15;99358.00;;;12.52;100.00
31771;BME280;18343;50.152;8.182;2023-02-13T12:23:06;99356.19;;;12.61;100.00
31771;BME280;18343;50.152;8.182;2023-02-13T12:33:43;99352.97;;;12.83;100.00
31771;BME280;18343;50.152;8.182;2023-02-13T12:36:35;99346.34;;;12.77;100.00
31771;BME280;18343;50.152;8.182;2023-02-13T12:39:28;99347.75;;;12.89;100.00
31771;BME280;18343;50.152;8.182;2023-02-13T12:42:28;99341.09;;;13.02;100.00
31771;BME280;18343;50.152;8.182;2023-02-13T12:45:32;99344.69;;;13.10;100.00
31771;BME280;18343;50.152;8.182;2023-02-13T12:48:33;99340.50;;;13.16;100.00
31771;BME280;18343;50.152;8.182;2023-02-13T12:51:35;99337.97;;;12.88;100.00
31771;BME280;18343;50.152;8.182;2023-02-13T12:54:39;99333.19;;;13.08;100.00
31771;BME280;18343;50.152;8.182;2023-02-13T12:57:49;99331.75;;;12.96;100.00
31771;BME280;18343;50.152;8.182;2023-02-13T13:00:48;99332.97;;;13.02;100.00
31771;BME280;18343;50.152;8.182;2023-02-13T13:03:44;99331.13;;;13.02;100.00
31771;BME280;18343;50.152;8.182;2023-02-13T13:06:51;99327.41;;;13.03;100.00
31771;BME280;18343;50.152;8.182;2023-02-13T13:09:56;99328.25;;;13.04;100.00
31771;BME280;18343;50.152;8.182;2023-02-13T13:12:53;99331.56;;;12.89;100.00
31771;BME280;18343;50.152;8.182;2023-02-13T13:15:51;99346.56;;;12.84;100.00
31771;BME280;18343;50.152;8.182;2023-02-13T13:18:51;99325.56;;;13.04;100.00
31771;BME280;18343;50.152;8.182;2023-02-13T13:21:46;99327.41;;;12.69;100.00
31771;BME280;18343;50.152;8.182;2023-02-13T13:24:41;99327.31;;;12.79;100.00
31771;BME280;18343;50.152;8.182;2023-02-13T13:27:33;99330.00;;;12.79;100.00
31771;BME280;18343;50.152;8.182;2023-02-13T13:30:23;99328.25;;;12.70;100.00
31771;BME280;18343;50.152;8.182;2023-02-13T13:33:16;99328.59;;;13.01;100.00
31771;BME280;18343;50.152;8.182;2023-02-13T13:36:08;99326.63;;;13.11;100.00
31771;BME280;18343;50.152;8.182;2023-02-13T13:39:01;99319.84;;;13.07;96.09
31771;BME280;18343;50.152;8.182;2023-02-13T13:41:53;99312.34;;;12.93;94.55
31771;BME280;18343;50.152;8.182;2023-02-13T13:45:00;99311.50;;;12.92;100.00
31771;BME280;18343;50.152;8.182;2023-02-13T13:48:30;99310.38;;;13.03;100.00
31771;BME280;18343;50.152;8.182;2023-02-13T13:51:18;99312.75;;;13.06;100.00
31771;BME280;18343;50.152;8.182;2023-02-13T13:54:22;99315.66;;;13.12;100.00
31771;BME280;18343;50.152;8.182;2023-02-13T13:57:11;99313.03;;;12.95;100.00
31771;BME280;18343;50.152;8.182;2023-02-13T14:00:27;99307.47;;;12.96;99.83
31771;BME280;18343;50.152;8.182;2023-02-13T14:03:33;99302.38;;;12.93;100.00
31771;BME280;18343;50.152;8.182;2023-02-13T14:06:20;99307.03;;;12.75;100.00
31771;BME280;18343;50.152;8.182;2023-02-13T14:09:36;99297.13;;;12.83;99.91
31771;BME280;18343;50.152;8.182;2023-02-13T14:12:45;99297.31;;;12.90;100.00
31771;BME280;18343;50.152;8.182;2023-02-13T14:15:51;99289.19;;;12.82;98.39
31771;BME280;18343;50.152;8.182;2023-02-13T14:18:37;99292.53;;;12.76;97.92
31771;BME280;18343;50.152;8.182;2023-02-13T14:21:29;99288.50;;;12.80;97.95
31771;BME280;18343;50.152;8.182;2023-02-13T14:24:17;99293.91;;;12.88;97.60
31771;BME280;18343;50.152;8.182;2023-02-13T14:27:03;99288.19;;;12.83;96.13
31771;BME280;18343;50.152;8.182;2023-02-13T14:29:49;99288.34;;;12.81;96.76
31771;BME280;18343;50.152;8.182;2023-02-13T14:32:35;99291.19;;;12.80;96.26
31771;BME280;18343;50.152;8.182;2023-02-13T14:35:26;99288.34;;;12.81;96.30
31771;BME280;18343;50.152;8.182;2023-02-13T14:38:23;99291.56;;;12.85;96.26
31771;BME280;18343;50.152;8.182;2023-02-13T14:41:42;99293.06;;;12.87;96.02
31771;BME280;18343;50.152;8.182;2023-02-13T14:44:48;99290.03;;;12.82;94.63
31771;BME280;18343;50.152;8.182;2023-02-13T14:47:38;99286.31;;;12.83;95.80
31771;BME280;18343;50.152;8.182;2023-02-13T14:50:29;99281.25;;;12.88;95.45
31771;BME280;18343;50.152;8.182;2023-02-13T14:53:20;99281.31;;;12.97;95.69
31771;BME280;18343;50.152;8.182;2023-02-13T14:56:12;99276.38;;;12.92;94.69
31771;BME280;18343;50.152;8.182;2023-02-13T14:59:08;99276.38;;;12.84;94.25
31771;BME280;18343;50.152;8.182;2023-02-13T15:01:59;99282.78;;;12.83;95.02
31771;BME280;18343;50.152;8.182;2023-02-13T15:04:47;99280.88;;;12.75;94.08
31771;BME280;18343;50.152;8.182;2023-02-13T15:07:36;99275.00;;;12.80;94.54